createdAt,value
2022-08-25T00:01:08.651Z,6.03
2022-08-25T00:03:35.885Z,5.95
2022-08-25T00:06:07.001Z,5.72
2022-08-25T00:08:35.106Z,5.57
2022-08-25T00:11:03.495Z,5.53
2022-08-25T00:13:30.359Z,6.65
2022-08-25T00:15:57.621Z,5.47
2022-08-25T00:18:24.386Z,5.78
2022-08-25T00:20:51.509Z,5.68
2022-08-25T00:23:19.693Z,5.53
2022-08-25T00:25:46.294Z,4.75
2022-08-25T00:28:13.982Z,5.40
2022-08-25T00:30:40.702Z,5.60
2022-08-25T00:33:07.284Z,6.95
2022-08-25T00:35:33.807Z,6.22
2022-08-25T00:38:00.445Z,5.57
2022-08-25T00:40:28.594Z,5.53
2022-08-25T00:42:56.252Z,5.07
2022-08-25T00:45:23.805Z,5.13
2022-08-25T00:47:50.462Z,5.60
2022-08-25T00:50:17.349Z,6.10
2022-08-25T00:52:48.077Z,6.07
2022-08-25T00:55:21.284Z,6.30
2022-08-25T00:58:19.967Z,5.88
2022-08-25T01:00:50.306Z,6.15
2022-08-25T01:03:19.199Z,6.05
2022-08-25T01:09:47.850Z,6.43
2022-08-25T01:14:42.488Z,6.63
2022-08-25T01:17:09.575Z,5.97
2022-08-25T01:19:36.219Z,6.13
2022-08-25T01:22:02.927Z,6.68
2022-08-25T01:24:38.803Z,5.95
2022-08-25T01:27:06.446Z,6.55
2022-08-25T01:29:33.473Z,6.00
2022-08-25T01:32:07.011Z,6.55
2022-08-25T01:34:36.594Z,6.40
2022-08-25T01:37:04.146Z,7.47
2022-08-25T01:39:33.950Z,6.72
2022-08-25T01:42:09.524Z,7.45
2022-08-25T01:44:40.202Z,7.20
2022-08-25T01:47:08.008Z,6.63
2022-08-25T01:49:35.641Z,7.63
2022-08-25T01:52:25.555Z,7.30
2022-08-25T01:54:52.116Z,7.40
2022-08-25T01:57:18.636Z,7.80
2022-08-25T01:59:45.217Z,7.78
2022-08-25T02:02:12.054Z,7.85
2022-08-25T02:04:39.484Z,7.05
2022-08-25T02:07:08.960Z,7.43
2022-08-25T02:09:37.488Z,8.48
2022-08-25T02:12:04.544Z,7.32
2022-08-25T02:14:31.045Z,8.07
2022-08-25T02:16:57.719Z,7.55
2022-08-25T02:19:26.104Z,7.43
2022-08-25T02:21:53.532Z,6.38
2022-08-25T02:24:20.249Z,7.63
2022-08-25T02:26:46.802Z,7.88
2022-08-25T02:29:13.653Z,7.15
2022-08-25T02:31:40.409Z,7.20
2022-08-25T02:34:08.730Z,8.05
2022-08-25T02:36:36.027Z,7.18
2022-08-25T02:39:04.082Z,6.90
2022-08-25T02:41:31.827Z,7.93
2022-08-25T02:44:00.136Z,8.15
2022-08-25T02:46:27.664Z,7.85
2022-08-25T02:48:55.291Z,8.15
2022-08-25T02:51:23.739Z,8.02
2022-08-25T02:53:50.460Z,7.43
2022-08-25T02:56:18.747Z,7.25
2022-08-25T02:58:46.366Z,8.05
2022-08-25T03:01:13.743Z,8.95
2022-08-25T03:03:43.574Z,7.28
2022-08-25T03:06:12.674Z,7.70
2022-08-25T03:08:39.624Z,8.13
2022-08-25T03:11:07.005Z,7.20
2022-08-25T03:13:33.859Z,8.25
2022-08-25T03:16:01.218Z,8.48
2022-08-25T03:18:30.222Z,8.15
2022-08-25T03:20:57.755Z,7.80
2022-08-25T03:23:24.646Z,8.25
2022-08-25T03:26:09.522Z,8.25
2022-08-25T03:28:36.476Z,9.10
2022-08-25T03:31:03.232Z,9.20
2022-08-25T03:33:31.044Z,8.48
2022-08-25T03:35:59.092Z,9.15
2022-08-25T03:38:26.964Z,8.23
2022-08-25T03:40:54.037Z,7.80
2022-08-25T03:43:21.273Z,8.20
2022-08-25T03:45:48.015Z,9.52
2022-08-25T03:48:16.142Z,9.23
2022-08-25T03:50:51.738Z,8.70
2022-08-25T03:53:19.838Z,9.38
2022-08-25T03:55:46.586Z,9.77
2022-08-25T03:58:13.216Z,9.70
2022-08-25T04:00:39.899Z,9.45
2022-08-25T04:03:06.738Z,9.38
2022-08-25T04:05:33.654Z,8.70
2022-08-25T04:08:01.907Z,8.88
2022-08-25T04:10:29.381Z,9.35
2022-08-25T04:12:56.164Z,9.05
2022-08-25T04:15:22.742Z,10.00
2022-08-25T04:17:50.534Z,8.23
2022-08-25T04:20:19.045Z,9.52
2022-08-25T04:22:45.555Z,9.82
2022-08-25T04:25:12.886Z,9.38
2022-08-25T04:27:39.496Z,9.40
2022-08-25T04:30:06.967Z,8.55
2022-08-25T04:32:36.279Z,9.60
2022-08-25T04:35:05.156Z,10.35
2022-08-25T04:37:31.708Z,9.38
2022-08-25T04:39:58.272Z,9.48
2022-08-25T04:42:26.926Z,10.70
2022-08-25T04:44:54.374Z,10.02
2022-08-25T04:47:20.916Z,9.65
2022-08-25T04:49:47.826Z,11.35
2022-08-25T04:52:14.750Z,10.95
2022-08-25T04:54:42.159Z,10.38
2022-08-25T04:57:08.697Z,10.48
2022-08-25T04:59:35.291Z,11.40
2022-08-25T05:02:03.335Z,13.23
2022-08-25T05:04:30.934Z,9.82
2022-08-25T05:06:58.043Z,11.05
2022-08-25T05:09:25.803Z,11.65
2022-08-25T05:11:53.733Z,13.18
2022-08-25T05:14:22.192Z,13.48
2022-08-25T05:16:53.881Z,13.23
2022-08-25T05:19:20.397Z,11.27
2022-08-25T05:21:47.143Z,15.27
2022-08-25T05:24:13.626Z,13.27
2022-08-25T05:26:40.161Z,12.25
2022-08-25T05:29:07.163Z,15.23
2022-08-25T05:31:36.404Z,13.90
2022-08-25T05:34:07.853Z,14.35
2022-08-25T05:36:34.887Z,14.35
2022-08-25T05:39:01.736Z,15.40
2022-08-25T05:41:30.436Z,15.18
2022-08-25T05:43:57.846Z,16.23
2022-08-25T05:46:25.333Z,15.60
2022-08-25T05:48:52.174Z,15.27
2022-08-25T05:51:19.867Z,14.73
2022-08-25T05:53:48.475Z,15.43
2022-08-25T05:56:15.466Z,14.07
2022-08-25T05:58:43.361Z,15.95
2022-08-25T06:01:36.674Z,14.95
2022-08-25T06:04:03.463Z,14.45
2022-08-25T06:06:30.048Z,14.90
2022-08-25T06:08:56.675Z,16.27
2022-08-25T06:11:23.515Z,15.23
2022-08-25T06:13:50.047Z,16.20
2022-08-25T06:16:16.617Z,16.17
2022-08-25T06:18:43.245Z,17.60
2022-08-25T06:21:12.796Z,17.85
2022-08-25T06:23:39.859Z,19.52
2022-08-25T06:26:09.639Z,19.00
2022-08-25T06:28:39.650Z,21.13
2022-08-25T06:31:06.526Z,21.45
2022-08-25T06:33:33.093Z,18.80
2022-08-25T06:35:59.948Z,19.75
2022-08-25T06:38:27.245Z,19.38
2022-08-25T06:40:54.220Z,19.45
2022-08-25T06:43:21.897Z,20.23
2022-08-25T06:45:48.647Z,20.33
2022-08-25T06:48:15.910Z,20.98
2022-08-25T06:50:43.303Z,20.70
2022-08-25T06:53:10.400Z,22.38
2022-08-25T06:55:37.138Z,24.52
2022-08-25T06:58:04.965Z,24.02
2022-08-25T07:00:32.465Z,24.15
2022-08-25T07:03:01.400Z,24.63
2022-08-25T07:05:40.797Z,24.52
2022-08-25T07:10:38.352Z,25.88
2022-08-25T07:13:04.825Z,26.80
2022-08-25T07:15:31.357Z,24.38
2022-08-25T07:17:58.096Z,25.52
2022-08-25T07:25:24.114Z,23.95
2022-08-25T07:27:50.659Z,23.88
2022-08-25T07:30:17.475Z,23.15
2022-08-25T07:32:43.947Z,22.30
2022-08-25T07:35:19.011Z,22.60
2022-08-25T07:38:06.638Z,22.75
2022-08-25T07:43:09.531Z,22.48
2022-08-25T07:45:42.110Z,23.92
2022-08-25T07:48:17.771Z,22.63
2022-08-25T07:50:45.662Z,22.48
2022-08-25T07:53:13.965Z,21.50
2022-08-25T07:55:41.773Z,21.23
2022-08-25T07:58:12.335Z,20.13
2022-08-25T08:00:40.502Z,21.55
2022-08-25T08:03:12.931Z,20.60
2022-08-25T08:05:50.548Z,20.33
2022-08-25T08:08:17.218Z,19.58
2022-08-25T08:11:03.301Z,18.90
2022-08-25T08:13:31.853Z,18.20
2022-08-25T08:15:58.460Z,19.27
2022-08-25T08:18:24.992Z,21.23
2022-08-25T08:20:51.466Z,19.27
2022-08-25T08:23:18.174Z,18.55
2022-08-25T08:25:44.638Z,19.20
2022-08-25T08:28:11.816Z,17.27
2022-08-25T08:30:38.434Z,18.38
2022-08-25T08:33:10.034Z,18.30
2022-08-25T08:35:38.186Z,17.23
2022-08-25T08:38:08.962Z,18.27
2022-08-25T08:41:26.317Z,18.48
2022-08-25T08:46:49.232Z,19.35
2022-08-25T08:49:46.674Z,18.15
2022-08-25T08:52:17.178Z,17.13
2022-08-25T08:54:49.609Z,18.38
2022-08-25T08:57:19.625Z,18.00
2022-08-25T08:59:54.146Z,19.75
2022-08-25T09:02:39.438Z,18.63
2022-08-25T09:05:20.561Z,19.45
2022-08-25T09:07:56.070Z,18.63
2022-08-25T09:10:26.087Z,18.83
2022-08-25T09:13:17.116Z,18.48
2022-08-25T09:19:23.637Z,18.20
2022-08-25T09:22:35.164Z,18.88
2022-08-25T09:25:29.606Z,16.60
2022-08-25T09:28:28.219Z,15.57
2022-08-25T09:31:00.457Z,13.13
2022-08-25T09:33:31.461Z,11.90
2022-08-25T09:36:01.879Z,11.77
2022-08-25T09:38:32.504Z,12.00
2022-08-25T09:41:01.032Z,11.80
2022-08-25T09:43:28.204Z,11.00
2022-08-25T09:46:08.745Z,11.57
2022-08-25T09:48:44.797Z,9.83
2022-08-25T09:51:23.906Z,9.38
2022-08-25T09:54:13.719Z,9.00
2022-08-25T09:56:56.205Z,8.68
2022-08-25T09:59:34.347Z,9.13
2022-08-25T10:02:25.114Z,9.05
2022-08-25T10:04:52.823Z,9.43
2022-08-25T10:07:34.599Z,8.73
2022-08-25T10:10:07.650Z,8.32
2022-08-25T10:12:44.114Z,9.48
2022-08-25T10:15:29.365Z,8.20
2022-08-25T10:18:16.036Z,8.68
2022-08-25T10:20:44.712Z,8.57
2022-08-25T10:23:14.069Z,7.78
2022-08-25T10:25:59.294Z,7.97
2022-08-25T10:28:41.525Z,8.02
2022-08-25T10:31:35.838Z,7.85
2022-08-25T10:34:31.361Z,6.60
2022-08-25T10:37:20.659Z,6.85
2022-08-25T10:39:55.529Z,8.18
2022-08-25T10:42:45.802Z,7.75
2022-08-25T10:45:37.944Z,7.05
2022-08-25T10:48:18.521Z,7.43
2022-08-25T10:51:25.553Z,7.63
2022-08-25T10:54:02.227Z,7.88
2022-08-25T10:56:34.954Z,7.97
2022-08-25T10:59:07.215Z,7.75
2022-08-25T11:02:06.638Z,7.35
2022-08-25T11:04:59.558Z,7.25
2022-08-25T11:07:33.562Z,7.28
2022-08-25T11:10:15.185Z,7.78
2022-08-25T11:12:50.126Z,6.80
2022-08-25T11:15:24.120Z,7.30
2022-08-25T11:18:05.270Z,7.00
2022-08-25T11:21:13.137Z,6.53
2022-08-25T11:23:48.088Z,6.93
2022-08-25T11:26:20.750Z,6.88
2022-08-25T11:29:04.198Z,6.90
2022-08-25T11:31:31.156Z,8.52
2022-08-25T11:33:58.885Z,7.60
2022-08-25T11:36:33.071Z,7.25
2022-08-25T11:38:59.740Z,6.63
2022-08-25T11:41:58.083Z,6.03
2022-08-25T11:44:53.022Z,6.35
2022-08-25T11:47:58.903Z,7.07
2022-08-25T11:50:33.130Z,6.13
2022-08-25T11:53:37.891Z,6.85
2022-08-25T11:56:31.543Z,6.68
2022-08-25T11:58:59.435Z,6.43
2022-08-25T12:01:32.481Z,5.78
2022-08-25T12:04:33.706Z,6.50
2022-08-25T12:07:22.658Z,5.63
2022-08-25T12:10:10.654Z,6.70
2022-08-25T12:12:59.351Z,6.40
2022-08-25T12:15:25.879Z,6.88
2022-08-25T12:18:21.960Z,7.15
2022-08-25T12:20:57.525Z,7.05
2022-08-25T12:23:35.158Z,6.57
2022-08-25T12:26:28.878Z,6.65
2022-08-25T12:28:58.893Z,7.00
2022-08-25T12:31:43.034Z,7.00
2022-08-25T12:34:38.608Z,7.40
2022-08-25T12:37:13.279Z,6.75
2022-08-25T12:39:52.397Z,6.72
2022-08-25T12:42:25.324Z,6.80
2022-08-25T12:45:20.160Z,6.53
2022-08-25T12:47:48.643Z,6.55
2022-08-25T12:50:32.359Z,6.72
2022-08-25T12:53:24.481Z,7.22
2022-08-25T12:56:02.735Z,6.30
2022-08-25T12:58:59.918Z,6.68
2022-08-25T13:01:41.956Z,6.47
2022-08-25T13:07:02.244Z,6.47
2022-08-25T13:09:49.276Z,6.30
2022-08-25T13:12:25.846Z,6.43
2022-08-25T13:14:55.330Z,7.47
2022-08-25T13:17:37.951Z,5.80
2022-08-25T13:20:29.261Z,7.03
2022-08-25T13:22:59.369Z,6.05
2022-08-25T13:25:32.322Z,5.97
2022-08-25T13:28:03.209Z,6.35
2022-08-25T13:30:33.091Z,5.97
2022-08-25T13:33:00.304Z,6.50
2022-08-25T13:35:32.779Z,6.15
2022-08-25T13:38:13.700Z,5.88
2022-08-25T13:40:40.887Z,6.40
2022-08-25T13:43:12.537Z,5.97
2022-08-25T13:45:43.531Z,6.32
2022-08-25T13:48:22.529Z,6.00
2022-08-25T13:50:52.063Z,5.78
2022-08-25T13:53:25.443Z,6.25
2022-08-25T13:55:57.159Z,6.10
2022-08-25T13:58:39.421Z,6.75
2022-08-25T14:01:23.142Z,6.63
2022-08-25T14:06:49.572Z,6.55
2022-08-25T14:09:18.441Z,5.93
2022-08-25T14:11:58.511Z,6.13
2022-08-25T14:14:24.910Z,5.85
2022-08-25T14:16:58.923Z,6.00
2022-08-25T14:19:26.258Z,6.03
2022-08-25T14:21:56.552Z,5.93
2022-08-25T14:24:23.859Z,6.32
2022-08-25T14:26:54.642Z,5.78
2022-08-25T14:29:22.298Z,6.28
2022-08-25T14:31:50.009Z,5.60
2022-08-25T14:34:32.799Z,5.95
2022-08-25T14:37:02.102Z,6.15
2022-08-25T14:39:29.270Z,5.47
2022-08-25T14:41:56.144Z,5.40
2022-08-25T14:44:22.734Z,6.07
2022-08-25T14:46:54.230Z,6.22
2022-08-25T14:49:29.677Z,5.75
2022-08-25T14:52:08.265Z,5.70
2022-08-25T14:54:37.581Z,5.95
2022-08-25T14:57:04.370Z,6.43
2022-08-25T14:59:35.016Z,6.07
2022-08-25T15:02:01.863Z,4.85
2022-08-25T15:04:30.081Z,5.35
2022-08-25T15:07:01.689Z,6.00
2022-08-25T15:09:33.742Z,5.10
2022-08-25T15:12:00.425Z,6.30
2022-08-25T15:14:29.228Z,5.65
2022-08-25T15:17:01.673Z,6.05
2022-08-25T15:19:29.042Z,5.32
2022-08-25T15:21:57.828Z,5.88
2022-08-25T15:24:27.690Z,6.18
2022-08-25T15:27:00.281Z,5.72
2022-08-25T15:29:30.115Z,5.78
2022-08-25T15:31:57.954Z,5.38
2022-08-25T15:34:24.454Z,5.32
2022-08-25T15:36:51.307Z,5.28
2022-08-25T15:39:19.201Z,5.65
2022-08-25T15:41:52.483Z,5.00
2022-08-25T15:44:19.776Z,5.45
2022-08-25T15:46:47.155Z,5.78
2022-08-25T15:49:16.209Z,6.70
2022-08-25T15:51:50.299Z,5.13
2022-08-25T15:54:17.063Z,5.88
2022-08-25T15:56:44.361Z,6.57
2022-08-25T15:59:13.410Z,5.80
2022-08-25T16:01:41.320Z,5.03
2022-08-25T16:04:07.920Z,4.93
2022-08-25T16:06:34.473Z,6.03
2022-08-25T16:09:01.379Z,5.63
2022-08-25T16:11:30.861Z,6.18
2022-08-25T16:13:57.758Z,4.95
2022-08-25T16:16:26.740Z,6.28
2022-08-25T16:18:54.043Z,5.63
2022-08-25T16:21:25.678Z,5.93
2022-08-25T16:23:58.507Z,6.03
2022-08-25T16:26:25.862Z,6.40
2022-08-25T16:28:52.945Z,5.85
2022-08-25T16:31:20.613Z,6.70
2022-08-25T16:33:48.204Z,6.13
2022-08-25T16:36:21.527Z,5.72
2022-08-25T16:38:49.532Z,7.00
2022-08-25T16:41:22.964Z,5.50
2022-08-25T16:43:50.390Z,6.00
2022-08-25T16:46:19.567Z,6.07
2022-08-25T16:48:46.977Z,5.80
2022-08-25T16:51:16.219Z,5.80
2022-08-25T16:54:04.983Z,5.80
2022-08-25T16:56:35.027Z,6.70
2022-08-25T16:59:03.368Z,6.07
2022-08-25T17:04:01.272Z,5.80
2022-08-25T17:06:29.648Z,5.60
2022-08-25T17:08:56.236Z,5.68
2022-08-25T17:11:26.849Z,6.30
2022-08-25T17:13:56.922Z,6.25
2022-08-25T17:16:27.934Z,6.22
2022-08-25T17:18:55.293Z,7.70
2022-08-25T17:21:24.255Z,5.60
2022-08-25T17:23:52.575Z,6.50
2022-08-25T17:26:19.819Z,6.93
2022-08-25T17:28:54.163Z,6.03
2022-08-25T17:31:21.161Z,6.90
2022-08-25T17:33:48.062Z,6.38
2022-08-25T17:36:17.325Z,6.35
2022-08-25T17:38:45.003Z,7.03
2022-08-25T17:41:14.596Z,6.15
2022-08-25T17:43:43.632Z,6.45
2022-08-25T17:46:11.773Z,5.80
2022-08-25T17:48:43.860Z,6.40
2022-08-25T17:51:11.088Z,6.43
2022-08-25T17:53:38.470Z,6.82
2022-08-25T17:56:11.617Z,6.22
2022-08-25T17:58:38.241Z,6.47
2022-08-25T18:01:05.673Z,6.70
2022-08-25T18:03:33.012Z,7.07
2022-08-25T18:06:00.356Z,6.60
2022-08-25T18:08:32.016Z,7.43
2022-08-25T18:11:02.168Z,6.80
2022-08-25T18:13:29.344Z,7.72
2022-08-25T18:15:55.842Z,6.60
2022-08-25T18:18:24.208Z,6.53
2022-08-25T18:20:50.986Z,6.43
2022-08-25T18:23:19.501Z,7.45
2022-08-25T18:25:48.582Z,6.68
2022-08-25T18:28:15.463Z,7.50
2022-08-25T18:30:42.448Z,7.03
2022-08-25T18:33:09.738Z,7.03
2022-08-25T18:35:36.275Z,7.38
2022-08-25T18:38:23.712Z,7.63
2022-08-25T18:40:57.956Z,6.93
2022-08-25T18:43:24.907Z,7.07
2022-08-25T18:45:51.493Z,7.18
2022-08-25T18:48:20.505Z,6.85
2022-08-25T18:50:50.547Z,7.20
2022-08-25T18:53:19.221Z,7.57
2022-08-25T18:55:58.074Z,7.15
2022-08-25T18:58:26.230Z,7.35
2022-08-25T19:00:52.713Z,6.90
2022-08-25T19:03:22.314Z,7.47
2022-08-25T19:05:55.037Z,7.55
2022-08-25T19:08:24.675Z,7.47
2022-08-25T19:10:53.515Z,7.00
2022-08-25T19:13:22.661Z,8.25
2022-08-25T19:15:51.702Z,7.10
2022-08-25T19:18:25.941Z,7.43
2022-08-25T19:20:56.127Z,7.75
2022-08-25T19:23:22.588Z,8.05
2022-08-25T19:25:49.120Z,8.15
2022-08-25T19:28:17.229Z,7.15
2022-08-25T19:30:50.355Z,6.72
2022-08-25T19:33:42.180Z,7.47
2022-08-25T19:36:06.397Z,7.82
2022-08-25T19:38:37.523Z,8.55
2022-08-25T19:41:09.381Z,8.68
2022-08-25T19:43:54.962Z,7.75
2022-08-25T19:46:28.945Z,6.90
2022-08-25T19:49:09.193Z,7.63
2022-08-25T19:51:45.657Z,8.20
2022-08-25T19:54:15.308Z,8.15
2022-08-25T19:56:43.508Z,8.15
2022-08-25T19:59:10.961Z,8.60
2022-08-25T20:01:37.533Z,8.07
2022-08-25T20:04:06.920Z,8.40
2022-08-25T20:06:33.473Z,8.25
2022-08-25T20:09:00.640Z,8.32
2022-08-25T20:11:29.089Z,8.85
2022-08-25T20:14:00.372Z,11.07
2022-08-25T20:16:30.180Z,9.18
2022-08-25T20:18:56.720Z,8.63
2022-08-25T20:21:24.000Z,8.70
2022-08-25T20:24:09.312Z,9.35
2022-08-25T20:26:36.610Z,9.50
2022-08-25T20:29:04.989Z,9.43
2022-08-25T20:31:32.505Z,10.50
2022-08-25T20:34:02.887Z,9.57
2022-08-25T20:36:30.018Z,9.00
2022-08-25T20:38:59.143Z,9.23
2022-08-25T20:41:26.048Z,10.07
2022-08-25T20:43:52.600Z,8.82
2022-08-25T20:46:19.285Z,10.30
2022-08-25T20:48:45.939Z,10.85
2022-08-25T20:51:13.183Z,9.20
2022-08-25T20:53:42.402Z,10.45
2022-08-25T20:56:14.703Z,9.73
2022-08-25T20:58:42.545Z,9.45
2022-08-25T21:01:23.077Z,9.95
2022-08-25T21:03:50.479Z,9.98
2022-08-25T21:06:17.404Z,9.63
2022-08-25T21:08:46.557Z,10.55
2022-08-25T21:11:15.620Z,10.32
2022-08-25T21:13:42.076Z,10.55
2022-08-25T21:16:09.208Z,10.40
2022-08-25T21:18:36.569Z,10.40
2022-08-25T21:21:12.263Z,11.15
2022-08-25T21:23:39.502Z,11.05
2022-08-25T21:26:06.771Z,9.90
2022-08-25T21:28:34.573Z,11.02
2022-08-25T21:31:02.062Z,11.15
2022-08-25T21:33:28.733Z,10.93
2022-08-25T21:35:55.994Z,11.25
2022-08-25T21:38:22.508Z,11.20
2022-08-25T21:40:49.245Z,10.88
2022-08-25T21:43:16.200Z,11.27
2022-08-25T21:45:46.862Z,11.05
2022-08-25T21:48:14.072Z,10.30
2022-08-25T21:50:41.095Z,10.90
2022-08-25T21:53:09.700Z,11.18
2022-08-25T21:55:41.907Z,10.60
2022-08-25T21:58:08.845Z,10.98
2022-08-25T22:00:35.967Z,11.13
2022-08-25T22:03:02.855Z,11.25
2022-08-25T22:05:29.366Z,10.05
2022-08-25T22:07:55.894Z,10.50
2022-08-25T22:10:22.673Z,10.45
2022-08-25T22:12:49.840Z,10.23
2022-08-25T22:15:17.899Z,10.90
2022-08-25T22:17:45.484Z,9.70
2022-08-25T22:20:16.689Z,10.07
2022-08-25T22:22:43.208Z,10.40
2022-08-25T22:25:10.306Z,10.07
2022-08-25T22:27:37.340Z,10.52
2022-08-25T22:30:05.651Z,11.25
2022-08-25T22:32:32.227Z,10.15
2022-08-25T22:34:58.771Z,10.00
2022-08-25T22:37:25.591Z,10.63
2022-08-25T22:39:52.267Z,10.23
2022-08-25T22:42:19.048Z,11.13
2022-08-25T22:44:53.827Z,9.60
2022-08-25T22:47:20.695Z,10.75
2022-08-25T22:49:47.192Z,10.63
2022-08-25T22:52:14.397Z,10.52
2022-08-25T22:54:41.797Z,10.25
2022-08-25T22:57:08.353Z,10.23
2022-08-25T22:59:34.874Z,9.93
2022-08-25T23:02:01.587Z,10.73
2022-08-25T23:04:28.226Z,10.60
2022-08-25T23:06:55.131Z,9.35
2022-08-25T23:09:21.948Z,9.52
2022-08-25T23:11:51.304Z,10.02
2022-08-25T23:14:18.450Z,10.13
2022-08-25T23:16:45.098Z,10.85
2022-08-25T23:19:13.745Z,10.27
2022-08-25T23:22:00.117Z,9.68
2022-08-25T23:24:29.682Z,9.77
2022-08-25T23:27:01.312Z,9.48
2022-08-25T23:31:56.610Z,9.98
2022-08-25T23:34:24.761Z,9.57
2022-08-25T23:36:51.646Z,10.02
2022-08-25T23:39:18.332Z,9.45
2022-08-25T23:41:44.990Z,8.65
2022-08-25T23:44:17.429Z,9.70
2022-08-25T23:46:44.923Z,8.90
2022-08-25T23:49:11.957Z,9.30
2022-08-25T23:51:38.629Z,8.65
2022-08-25T23:54:09.652Z,9.00
2022-08-25T23:56:42.367Z,9.00
2022-08-25T23:59:13.015Z,8.55
